Charter Quote
Worldwide +1-877-727-2538 Call
Select Language Lang
SAFETY RELIABILITY EXPERIENCE

Private Jet Charter Services - Buckeburg Airport (ETHB)

Paramount Business Jets offers private jet charter flights and luxury airliner charters to and from Buckeburg Airport.

AIRPORT INFORMATION
ICAOETHB
LOCATIONBuckeburg, Germany
FACILITY TYPEAIRPORT
Runway Length (ft) Width (ft) Surface Type Elevation (ft)
26/08 6010 148 ASP 229.83607

At Paramount Business Jets you can hire chartered private jets to and from Buckeburg Airport with as little as 4 hours of notice. All flights booked via Paramount Business Jets are operated by certified direct air carriers that meet and exceed the FAA part 135 and 121 protocol or a foreign equivalent safety authority. Furthermore, Paramount Business Jets subscribes to ARGUS for their third party safety checks of operators, aircraft, and crews prior each and every flight to and from Buckeburg Airport and worldwide.

  • Quote a trip using Buckeburg Airport or call us 24/7 - 365 days a year at +1-877-727-2538.
Questions? Call +1-877-727-2538

METAR Weather Data at Buckeburg Airport, ETHB

STATIONETHB
OBSERVEDSat Aug 24, 04:20 UTC
NOWSat Aug 24, 04:30 UTC
AGE10 min ago
WINDSE at 2 mph
METARETHB 240420Z AUTO 13002KT //// // ////// 12/10 Q1023 ///

Call us on +1-877-727-2538 (24 Hours) to Hire a Private Jet or Get a Quick Quote.

Find Airports Near any Location

Processing
...